FNUE

Details ICAO FNUE (LUO)
Name LUENA
Region Angola
Timezone Africa/Luanda (UTC+1.0)
Plans Departing 7
Arriving 7
Stats Elevation 4,360 ft / 1,329 m (AMSL)
Location -11.768086° 19.897672°
Runways 1
Magnetic Variation 2.944° W
Sunrise 2017-12-18 04:13:56 UTC / 2017-12-18 05:13:56 Local
Sunset 2017-12-18 17:02:45 UTC / 2017-12-18 18:02:45 Local
Advertisement - Login to hide

Runways

ID Width Length Bearing (true) Bearing (mag) Surface Threshold Offset Overrun Length
11 130 ft / 40 m 7,889 ft / 2,405 m 104.18° 107.12° Asphalt 0 ft / 0 m 0 ft / 0 m
29 130 ft / 40 m 7,889 ft / 2,405 m 284.17° 287.11° Asphalt 0 ft / 0 m 0 ft / 0 m

Map

Weather


0- 5 10 15 20 25 30 35+ Temperature / ° C

Clouds and Precipitation
Forecast for 2017-12-18 00:00 UTC. Updated 2 hours ago

Ground ~20,000 ft ~40,000 ft Winds

METAR

Not found

TAF

TAF FNUE 171100Z 1712/1724 01005KT 9999 FEW015 SCT030 BECMG 1715/1718 VRB03KT BKN020 TEMPO 1718/1720 8000 -RA OVC015

Frequencies

Tower 118.10 MHz AFIS
Warning: Do not use this data for real-world aviation or navigation. No guarantee of current accuracy is given.